sensor_id;sensor_type;location;lat;lon;timestamp;P1;durP1;ratioP1;P2;durP2;ratioP2
10226;SDS011;15634;48.766;2.272;2023-05-29T00:01:17;17.63;;;6.13;;
10226;SDS011;15634;48.766;2.272;2023-05-29T00:03:46;34.88;;;16.27;;
10226;SDS011;15634;48.766;2.272;2023-05-29T00:06:13;27.35;;;13.07;;
10226;SDS011;15634;48.766;2.272;2023-05-29T00:08:41;18.05;;;8.07;;
10226;SDS011;15634;48.766;2.272;2023-05-29T00:11:07;16.55;;;7.68;;
10226;SDS011;15634;48.766;2.272;2023-05-29T00:13:34;19.27;;;9.60;;
10226;SDS011;15634;48.766;2.272;2023-05-29T00:16:00;19.17;;;9.15;;
10226;SDS011;15634;48.766;2.272;2023-05-29T00:18:28;20.23;;;9.80;;
10226;SDS011;15634;48.766;2.272;2023-05-29T00:20:55;19.33;;;9.02;;
10226;SDS011;15634;48.766;2.272;2023-05-29T00:23:21;17.48;;;7.63;;
10226;SDS011;15634;48.766;2.272;2023-05-29T00:25:49;16.95;;;7.07;;
10226;SDS011;15634;48.766;2.272;2023-05-29T00:28:16;14.35;;;6.97;;
10226;SDS011;15634;48.766;2.272;2023-05-29T00:30:42;13.00;;;6.13;;
10226;SDS011;15634;48.766;2.272;2023-05-29T00:33:09;15.55;;;6.60;;
10226;SDS011;15634;48.766;2.272;2023-05-29T00:35:36;17.02;;;6.78;;
10226;SDS011;15634;48.766;2.272;2023-05-29T00:38:02;12.30;;;6.50;;
10226;SDS011;15634;48.766;2.272;2023-05-29T00:40:29;12.68;;;5.88;;
10226;SDS011;15634;48.766;2.272;2023-05-29T00:42:57;15.43;;;6.35;;
10226;SDS011;15634;48.766;2.272;2023-05-29T00:45:23;12.77;;;6.07;;
10226;SDS011;15634;48.766;2.272;2023-05-29T00:47:51;13.82;;;6.72;;
10226;SDS011;15634;48.766;2.272;2023-05-29T00:50:20;12.48;;;6.28;;
10226;SDS011;15634;48.766;2.272;2023-05-29T00:52:48;13.00;;;6.20;;
10226;SDS011;15634;48.766;2.272;2023-05-29T00:55:16;14.75;;;6.30;;
10226;SDS011;15634;48.766;2.272;2023-05-29T00:57:42;13.00;;;6.32;;
10226;SDS011;15634;48.766;2.272;2023-05-29T01:00:12;16.17;;;6.32;;
10226;SDS011;15634;48.766;2.272;2023-05-29T01:02:39;16.30;;;6.22;;
10226;SDS011;15634;48.766;2.272;2023-05-29T01:05:09;11.80;;;6.65;;
10226;SDS011;15634;48.766;2.272;2023-05-29T01:07:36;15.80;;;6.57;;
10226;SDS011;15634;48.766;2.272;2023-05-29T01:10:03;13.02;;;5.97;;
10226;SDS011;15634;48.766;2.272;2023-05-29T01:12:32;13.70;;;6.32;;
10226;SDS011;15634;48.766;2.272;2023-05-29T01:15:14;13.38;;;6.43;;
10226;SDS011;15634;48.766;2.272;2023-05-29T01:17:47;12.95;;;6.45;;
10226;SDS011;15634;48.766;2.272;2023-05-29T01:20:24;18.00;;;6.65;;
10226;SDS011;15634;48.766;2.272;2023-05-29T01:23:04;10.57;;;5.82;;
10226;SDS011;15634;48.766;2.272;2023-05-29T01:25:37;12.10;;;6.53;;
10226;SDS011;15634;48.766;2.272;2023-05-29T01:28:15;10.93;;;6.10;;
10226;SDS011;15634;48.766;2.272;2023-05-29T01:30:43;12.20;;;6.05;;
10226;SDS011;15634;48.766;2.272;2023-05-29T01:33:10;17.40;;;6.65;;
10226;SDS011;15634;48.766;2.272;2023-05-29T01:35:36;12.48;;;6.53;;
10226;SDS011;15634;48.766;2.272;2023-05-29T01:38:03;15.70;;;6.57;;
10226;SDS011;15634;48.766;2.272;2023-05-29T01:40:30;12.45;;;5.70;;
10226;SDS011;15634;48.766;2.272;2023-05-29T01:42:56;18.33;;;5.97;;
10226;SDS011;15634;48.766;2.272;2023-05-29T01:45:24;14.43;;;6.28;;
10226;SDS011;15634;48.766;2.272;2023-05-29T01:47:51;13.57;;;6.43;;
10226;SDS011;15634;48.766;2.272;2023-05-29T01:50:18;13.23;;;6.07;;
10226;SDS011;15634;48.766;2.272;2023-05-29T01:52:44;12.93;;;5.95;;
10226;SDS011;15634;48.766;2.272;2023-05-29T01:55:11;16.33;;;6.63;;
10226;SDS011;15634;48.766;2.272;2023-05-29T01:57:38;15.05;;;6.47;;
10226;SDS011;15634;48.766;2.272;2023-05-29T02:00:05;16.85;;;7.13;;
10226;SDS011;15634;48.766;2.272;2023-05-29T02:02:37;11.63;;;6.35;;
10226;SDS011;15634;48.766;2.272;2023-05-29T02:05:03;12.07;;;6.80;;
10226;SDS011;15634;48.766;2.272;2023-05-29T02:07:31;14.27;;;6.65;;
10226;SDS011;15634;48.766;2.272;2023-05-29T02:09:58;12.35;;;6.40;;
10226;SDS011;15634;48.766;2.272;2023-05-29T02:12:24;14.00;;;6.75;;
10226;SDS011;15634;48.766;2.272;2023-05-29T02:14:51;12.88;;;6.47;;
10226;SDS011;15634;48.766;2.272;2023-05-29T02:17:17;12.63;;;5.60;;
10226;SDS011;15634;48.766;2.272;2023-05-29T02:19:46;14.93;;;6.68;;
10226;SDS011;15634;48.766;2.272;2023-05-29T02:22:13;17.73;;;6.35;;
10226;SDS011;15634;48.766;2.272;2023-05-29T02:24:39;15.55;;;6.22;;
10226;SDS011;15634;48.766;2.272;2023-05-29T02:27:06;14.82;;;6.82;;
10226;SDS011;15634;48.766;2.272;2023-05-29T02:29:32;13.90;;;6.07;;
10226;SDS011;15634;48.766;2.272;2023-05-29T02:31:59;11.93;;;6.28;;
10226;SDS011;15634;48.766;2.272;2023-05-29T02:34:26;13.33;;;6.10;;
10226;SDS011;15634;48.766;2.272;2023-05-29T02:36:53;10.98;;;5.72;;
10226;SDS011;15634;48.766;2.272;2023-05-29T02:39:20;12.93;;;6.07;;
10226;SDS011;15634;48.766;2.272;2023-05-29T02:41:47;13.77;;;5.90;;
10226;SDS011;15634;48.766;2.272;2023-05-29T02:44:13;17.73;;;6.40;;
10226;SDS011;15634;48.766;2.272;2023-05-29T02:46:40;14.80;;;6.78;;
10226;SDS011;15634;48.766;2.272;2023-05-29T02:49:06;15.95;;;6.57;;
10226;SDS011;15634;48.766;2.272;2023-05-29T02:51:33;14.07;;;6.25;;
10226;SDS011;15634;48.766;2.272;2023-05-29T02:54:01;12.20;;;5.78;;
10226;SDS011;15634;48.766;2.272;2023-05-29T02:56:28;12.05;;;6.55;;
10226;SDS011;15634;48.766;2.272;2023-05-29T02:58:54;19.17;;;7.30;;
10226;SDS011;15634;48.766;2.272;2023-05-29T03:01:21;13.50;;;6.65;;
10226;SDS011;15634;48.766;2.272;2023-05-29T03:03:47;15.88;;;6.68;;
10226;SDS011;15634;48.766;2.272;2023-05-29T03:06:14;18.15;;;6.63;;
10226;SDS011;15634;48.766;2.272;2023-05-29T03:08:42;12.43;;;6.75;;
10226;SDS011;15634;48.766;2.272;2023-05-29T03:11:11;15.18;;;6.50;;
10226;SDS011;15634;48.766;2.272;2023-05-29T03:13:38;17.23;;;7.05;;
10226;SDS011;15634;48.766;2.272;2023-05-29T03:16:05;16.73;;;6.72;;
10226;SDS011;15634;48.766;2.272;2023-05-29T03:18:33;18.40;;;6.80;;
10226;SDS011;15634;48.766;2.272;2023-05-29T03:20:59;18.45;;;7.18;;
10226;SDS011;15634;48.766;2.272;2023-05-29T03:23:26;14.30;;;7.18;;
10226;SDS011;15634;48.766;2.272;2023-05-29T03:25:53;15.32;;;7.22;;
10226;SDS011;15634;48.766;2.272;2023-05-29T03:28:22;12.85;;;7.00;;
10226;SDS011;15634;48.766;2.272;2023-05-29T03:30:48;16.80;;;6.40;;
10226;SDS011;15634;48.766;2.272;2023-05-29T03:33:16;18.33;;;7.25;;
10226;SDS011;15634;48.766;2.272;2023-05-29T03:35:43;16.73;;;7.20;;
10226;SDS011;15634;48.766;2.272;2023-05-29T03:38:10;18.48;;;7.97;;
10226;SDS011;15634;48.766;2.272;2023-05-29T03:40:36;15.68;;;7.13;;
10226;SDS011;15634;48.766;2.272;2023-05-29T03:43:03;12.73;;;6.88;;
10226;SDS011;15634;48.766;2.272;2023-05-29T03:45:31;17.15;;;7.43;;
10226;SDS011;15634;48.766;2.272;2023-05-29T03:47:57;15.32;;;7.00;;
10226;SDS011;15634;48.766;2.272;2023-05-29T03:50:24;15.32;;;7.45;;
10226;SDS011;15634;48.766;2.272;2023-05-29T03:52:51;16.80;;;7.43;;
10226;SDS011;15634;48.766;2.272;2023-05-29T03:55:17;14.90;;;7.22;;
10226;SDS011;15634;48.766;2.272;2023-05-29T03:57:44;16.67;;;7.20;;
10226;SDS011;15634;48.766;2.272;2023-05-29T04:00:11;15.27;;;7.38;;
10226;SDS011;15634;48.766;2.272;2023-05-29T04:02:39;15.90;;;7.90;;
10226;SDS011;15634;48.766;2.272;2023-05-29T04:05:07;16.00;;;7.13;;
10226;SDS011;15634;48.766;2.272;2023-05-29T04:07:35;13.60;;;6.72;;
10226;SDS011;15634;48.766;2.272;2023-05-29T04:10:03;19.23;;;7.53;;
10226;SDS011;15634;48.766;2.272;2023-05-29T04:12:31;14.98;;;7.60;;
10226;SDS011;15634;48.766;2.272;2023-05-29T04:14:58;15.55;;;7.30;;
10226;SDS011;15634;48.766;2.272;2023-05-29T04:17:25;18.63;;;7.30;;
10226;SDS011;15634;48.766;2.272;2023-05-29T04:19:53;17.38;;;7.97;;
10226;SDS011;15634;48.766;2.272;2023-05-29T04:22:20;15.45;;;7.10;;
10226;SDS011;15634;48.766;2.272;2023-05-29T04:24:46;19.67;;;7.60;;
10226;SDS011;15634;48.766;2.272;2023-05-29T04:27:13;16.60;;;7.80;;
10226;SDS011;15634;48.766;2.272;2023-05-29T04:29:40;15.65;;;8.02;;
10226;SDS011;15634;48.766;2.272;2023-05-29T04:32:08;19.00;;;7.85;;
10226;SDS011;15634;48.766;2.272;2023-05-29T04:34:36;14.63;;;7.30;;
10226;SDS011;15634;48.766;2.272;2023-05-29T04:37:05;18.50;;;8.00;;
10226;SDS011;15634;48.766;2.272;2023-05-29T04:39:32;17.83;;;8.20;;
10226;SDS011;15634;48.766;2.272;2023-05-29T04:41:59;19.38;;;8.32;;
10226;SDS011;15634;48.766;2.272;2023-05-29T04:44:25;18.50;;;8.60;;
10226;SDS011;15634;48.766;2.272;2023-05-29T04:46:52;17.13;;;7.72;;
10226;SDS011;15634;48.766;2.272;2023-05-29T04:49:19;18.17;;;8.68;;
10226;SDS011;15634;48.766;2.272;2023-05-29T04:51:46;19.25;;;8.35;;
10226;SDS011;15634;48.766;2.272;2023-05-29T04:54:14;16.10;;;7.35;;
10226;SDS011;15634;48.766;2.272;2023-05-29T04:56:41;19.35;;;8.75;;
10226;SDS011;15634;48.766;2.272;2023-05-29T04:59:08;15.32;;;8.18;;
10226;SDS011;15634;48.766;2.272;2023-05-29T05:01:35;17.52;;;8.27;;
10226;SDS011;15634;48.766;2.272;2023-05-29T05:04:01;16.48;;;8.73;;
10226;SDS011;15634;48.766;2.272;2023-05-29T05:06:28;12.25;;;7.50;;
10226;SDS011;15634;48.766;2.272;2023-05-29T05:08:55;16.80;;;8.13;;
10226;SDS011;15634;48.766;2.272;2023-05-29T05:11:23;16.48;;;8.93;;
10226;SDS011;15634;48.766;2.272;2023-05-29T05:13:50;20.10;;;8.38;;
10226;SDS011;15634;48.766;2.272;2023-05-29T05:16:17;20.70;;;8.63;;
10226;SDS011;15634;48.766;2.272;2023-05-29T05:18:44;21.63;;;8.40;;
10226;SDS011;15634;48.766;2.272;2023-05-29T05:21:11;14.95;;;8.38;;
10226;SDS011;15634;48.766;2.272;2023-05-29T05:23:38;16.88;;;8.38;;
10226;SDS011;15634;48.766;2.272;2023-05-29T05:26:05;17.63;;;9.05;;
10226;SDS011;15634;48.766;2.272;2023-05-29T05:28:33;17.48;;;8.73;;
10226;SDS011;15634;48.766;2.272;2023-05-29T05:31:00;19.92;;;8.57;;
10226;SDS011;15634;48.766;2.272;2023-05-29T05:33:27;18.70;;;9.18;;
10226;SDS011;15634;48.766;2.272;2023-05-29T05:35:54;17.90;;;9.15;;
10226;SDS011;15634;48.766;2.272;2023-05-29T05:38:20;17.27;;;8.90;;
10226;SDS011;15634;48.766;2.272;2023-05-29T05:40:47;16.88;;;8.88;;
10226;SDS011;15634;48.766;2.272;2023-05-29T05:43:13;17.30;;;9.02;;
10226;SDS011;15634;48.766;2.272;2023-05-29T05:45:41;16.42;;;8.65;;
10226;SDS011;15634;48.766;2.272;2023-05-29T05:48:08;18.17;;;9.00;;
10226;SDS011;15634;48.766;2.272;2023-05-29T05:50:35;18.55;;;8.77;;
10226;SDS011;15634;48.766;2.272;2023-05-29T05:53:01;24.05;;;10.57;;
10226;SDS011;15634;48.766;2.272;2023-05-29T05:55:28;17.10;;;8.65;;
10226;SDS011;15634;48.766;2.272;2023-05-29T05:57:55;20.60;;;9.60;;
10226;SDS011;15634;48.766;2.272;2023-05-29T06:00:22;19.13;;;9.10;;
10226;SDS011;15634;48.766;2.272;2023-05-29T06:02:50;21.65;;;9.68;;
10226;SDS011;15634;48.766;2.272;2023-05-29T06:05:17;22.77;;;10.10;;
10226;SDS011;15634;48.766;2.272;2023-05-29T06:07:44;19.85;;;9.30;;
10226;SDS011;15634;48.766;2.272;2023-05-29T06:10:10;18.48;;;9.52;;
10226;SDS011;15634;48.766;2.272;2023-05-29T06:12:38;16.23;;;9.05;;
10226;SDS011;15634;48.766;2.272;2023-05-29T06:15:05;17.10;;;9.38;;
10226;SDS011;15634;48.766;2.272;2023-05-29T06:17:32;15.15;;;8.70;;
10226;SDS011;15634;48.766;2.272;2023-05-29T06:20:01;19.70;;;9.30;;
10226;SDS011;15634;48.766;2.272;2023-05-29T06:22:29;15.88;;;8.80;;
10226;SDS011;15634;48.766;2.272;2023-05-29T06:24:56;19.45;;;9.93;;
10226;SDS011;15634;48.766;2.272;2023-05-29T06:27:23;18.30;;;9.45;;
10226;SDS011;15634;48.766;2.272;2023-05-29T06:29:50;21.08;;;9.93;;
10226;SDS011;15634;48.766;2.272;2023-05-29T06:32:17;16.25;;;8.85;;
10226;SDS011;15634;48.766;2.272;2023-05-29T06:34:44;19.30;;;8.35;;
10226;SDS011;15634;48.766;2.272;2023-05-29T06:37:12;19.35;;;9.20;;
10226;SDS011;15634;48.766;2.272;2023-05-29T06:39:38;20.55;;;10.00;;
10226;SDS011;15634;48.766;2.272;2023-05-29T06:42:07;19.13;;;10.23;;
10226;SDS011;15634;48.766;2.272;2023-05-29T06:44:33;22.65;;;8.77;;
10226;SDS011;15634;48.766;2.272;2023-05-29T06:47:00;17.80;;;8.77;;
10226;SDS011;15634;48.766;2.272;2023-05-29T06:49:27;18.38;;;8.75;;
10226;SDS011;15634;48.766;2.272;2023-05-29T06:51:54;19.60;;;10.20;;
10226;SDS011;15634;48.766;2.272;2023-05-29T06:54:22;16.85;;;8.77;;
10226;SDS011;15634;48.766;2.272;2023-05-29T06:56:48;17.27;;;8.80;;
10226;SDS011;15634;48.766;2.272;2023-05-29T06:59:15;21.17;;;9.15;;
10226;SDS011;15634;48.766;2.272;2023-05-29T07:01:42;17.73;;;9.40;;
10226;SDS011;15634;48.766;2.272;2023-05-29T07:04:09;16.00;;;9.20;;
10226;SDS011;15634;48.766;2.272;2023-05-29T07:06:37;20.30;;;9.18;;
10226;SDS011;15634;48.766;2.272;2023-05-29T07:09:03;18.08;;;8.63;;
10226;SDS011;15634;48.766;2.272;2023-05-29T07:11:32;19.35;;;9.27;;
10226;SDS011;15634;48.766;2.272;2023-05-29T07:13:58;18.10;;;9.00;;
10226;SDS011;15634;48.766;2.272;2023-05-29T07:16:25;16.58;;;9.27;;
10226;SDS011;15634;48.766;2.272;2023-05-29T07:18:51;19.23;;;9.13;;
10226;SDS011;15634;48.766;2.272;2023-05-29T07:21:18;20.75;;;9.35;;
10226;SDS011;15634;48.766;2.272;2023-05-29T07:23:45;16.20;;;9.18;;
10226;SDS011;15634;48.766;2.272;2023-05-29T07:26:12;21.52;;;9.55;;
10226;SDS011;15634;48.766;2.272;2023-05-29T07:28:40;19.85;;;11.30;;
10226;SDS011;15634;48.766;2.272;2023-05-29T07:31:06;14.90;;;8.65;;
10226;SDS011;15634;48.766;2.272;2023-05-29T07:33:33;19.02;;;9.02;;
10226;SDS011;15634;48.766;2.272;2023-05-29T07:36:00;15.68;;;8.93;;
10226;SDS011;15634;48.766;2.272;2023-05-29T07:38:27;17.98;;;8.52;;
10226;SDS011;15634;48.766;2.272;2023-05-29T07:40:53;15.68;;;9.30;;
10226;SDS011;15634;48.766;2.272;2023-05-29T07:43:20;18.55;;;9.95;;
10226;SDS011;15634;48.766;2.272;2023-05-29T07:45:48;19.55;;;10.80;;
10226;SDS011;15634;48.766;2.272;2023-05-29T07:48:15;21.63;;;9.93;;
10226;SDS011;15634;48.766;2.272;2023-05-29T07:50:41;15.45;;;9.07;;
10226;SDS011;15634;48.766;2.272;2023-05-29T07:53:08;16.02;;;8.43;;
10226;SDS011;15634;48.766;2.272;2023-05-29T07:55:35;18.92;;;8.05;;
10226;SDS011;15634;48.766;2.272;2023-05-29T07:58:02;15.02;;;9.05;;
10226;SDS011;15634;48.766;2.272;2023-05-29T08:00:29;13.95;;;9.02;;
10226;SDS011;15634;48.766;2.272;2023-05-29T08:02:57;16.20;;;8.40;;
10226;SDS011;15634;48.766;2.272;2023-05-29T08:05:23;17.60;;;8.60;;
10226;SDS011;15634;48.766;2.272;2023-05-29T08:07:50;15.93;;;8.75;;
10226;SDS011;15634;48.766;2.272;2023-05-29T08:10:17;17.27;;;9.73;;
10226;SDS011;15634;48.766;2.272;2023-05-29T08:12:43;18.50;;;9.07;;
10226;SDS011;15634;48.766;2.272;2023-05-29T08:15:10;20.50;;;9.10;;
10226;SDS011;15634;48.766;2.272;2023-05-29T08:17:37;14.73;;;8.57;;
10226;SDS011;15634;48.766;2.272;2023-05-29T08:20:06;16.92;;;8.60;;
10226;SDS011;15634;48.766;2.272;2023-05-29T08:22:35;15.73;;;8.77;;
10226;SDS011;15634;48.766;2.272;2023-05-29T08:25:01;15.82;;;8.00;;
10226;SDS011;15634;48.766;2.272;2023-05-29T08:27:28;12.60;;;7.75;;
10226;SDS011;15634;48.766;2.272;2023-05-29T08:29:56;15.02;;;8.95;;
10226;SDS011;15634;48.766;2.272;2023-05-29T08:32:22;12.93;;;7.97;;
10226;SDS011;15634;48.766;2.272;2023-05-29T08:34:49;13.75;;;7.93;;
10226;SDS011;15634;48.766;2.272;2023-05-29T08:37:17;16.42;;;8.65;;
10226;SDS011;15634;48.766;2.272;2023-05-29T08:39:44;14.23;;;8.35;;
10226;SDS011;15634;48.766;2.272;2023-05-29T08:42:13;14.15;;;8.07;;
10226;SDS011;15634;48.766;2.272;2023-05-29T08:44:40;16.85;;;8.18;;
10226;SDS011;15634;48.766;2.272;2023-05-29T08:47:09;14.55;;;7.90;;
10226;SDS011;15634;48.766;2.272;2023-05-29T08:49:42;15.63;;;7.90;;
10226;SDS011;15634;48.766;2.272;2023-05-29T08:52:10;14.27;;;8.20;;
10226;SDS011;15634;48.766;2.272;2023-05-29T08:54:42;13.50;;;8.15;;
10226;SDS011;15634;48.766;2.272;2023-05-29T08:57:10;15.13;;;8.73;;
10226;SDS011;15634;48.766;2.272;2023-05-29T08:59:39;11.93;;;7.80;;
10226;SDS011;15634;48.766;2.272;2023-05-29T09:02:06;13.82;;;7.65;;
10226;SDS011;15634;48.766;2.272;2023-05-29T09:04:33;15.68;;;8.00;;
10226;SDS011;15634;48.766;2.272;2023-05-29T09:07:00;18.65;;;10.65;;
10226;SDS011;15634;48.766;2.272;2023-05-29T09:09:27;14.82;;;9.02;;
10226;SDS011;15634;48.766;2.272;2023-05-29T09:11:56;20.60;;;11.18;;
10226;SDS011;15634;48.766;2.272;2023-05-29T09:14:33;17.00;;;8.40;;
10226;SDS011;15634;48.766;2.272;2023-05-29T09:17:01;16.88;;;9.70;;
10226;SDS011;15634;48.766;2.272;2023-05-29T09:19:28;22.00;;;10.77;;
10226;SDS011;15634;48.766;2.272;2023-05-29T09:22:00;29.70;;;16.70;;
10226;SDS011;15634;48.766;2.272;2023-05-29T09:24:27;20.42;;;10.57;;
10226;SDS011;15634;48.766;2.272;2023-05-29T09:26:55;25.15;;;11.73;;
10226;SDS011;15634;48.766;2.272;2023-05-29T09:29:23;16.25;;;9.60;;
10226;SDS011;15634;48.766;2.272;2023-05-29T09:31:50;15.18;;;8.63;;
10226;SDS011;15634;48.766;2.272;2023-05-29T09:34:17;14.90;;;8.82;;
10226;SDS011;15634;48.766;2.272;2023-05-29T09:36:43;14.70;;;8.50;;
10226;SDS011;15634;48.766;2.272;2023-05-29T09:39:10;12.90;;;8.23;;
10226;SDS011;15634;48.766;2.272;2023-05-29T09:41:41;18.10;;;8.32;;
10226;SDS011;15634;48.766;2.272;2023-05-29T09:44:11;14.95;;;8.05;;
10226;SDS011;15634;48.766;2.272;2023-05-29T09:46:39;14.75;;;8.00;;
10226;SDS011;15634;48.766;2.272;2023-05-29T09:49:08;14.13;;;8.02;;
10226;SDS011;15634;48.766;2.272;2023-05-29T09:51:35;12.68;;;8.90;;
10226;SDS011;15634;48.766;2.272;2023-05-29T09:54:12;13.63;;;8.43;;
10226;SDS011;15634;48.766;2.272;2023-05-29T09:56:40;12.82;;;8.38;;
10226;SDS011;15634;48.766;2.272;2023-05-29T09:59:09;17.48;;;8.50;;
10226;SDS011;15634;48.766;2.272;2023-05-29T10:01:39;14.88;;;9.20;;
10226;SDS011;15634;48.766;2.272;2023-05-29T10:04:07;19.02;;;11.35;;
10226;SDS011;15634;48.766;2.272;2023-05-29T10:06:35;27.23;;;14.85;;
10226;SDS011;15634;48.766;2.272;2023-05-29T10:09:04;21.85;;;11.93;;
10226;SDS011;15634;48.766;2.272;2023-05-29T10:11:33;19.42;;;10.55;;
10226;SDS011;15634;48.766;2.272;2023-05-29T10:14:01;23.30;;;10.93;;
10226;SDS011;15634;48.766;2.272;2023-05-29T10:16:30;20.88;;;10.85;;
10226;SDS011;15634;48.766;2.272;2023-05-29T10:19:00;23.67;;;13.65;;
10226;SDS011;15634;48.766;2.272;2023-05-29T10:21:31;20.45;;;12.25;;
10226;SDS011;15634;48.766;2.272;2023-05-29T10:23:59;23.67;;;12.27;;
10226;SDS011;15634;48.766;2.272;2023-05-29T10:26:27;20.98;;;11.65;;
10226;SDS011;15634;48.766;2.272;2023-05-29T10:29:02;19.52;;;11.90;;
10226;SDS011;15634;48.766;2.272;2023-05-29T10:31:37;19.08;;;10.90;;
10226;SDS011;15634;48.766;2.272;2023-05-29T10:34:13;17.52;;;11.35;;
10226;SDS011;15634;48.766;2.272;2023-05-29T10:36:46;17.15;;;10.00;;
10226;SDS011;15634;48.766;2.272;2023-05-29T10:39:16;16.75;;;10.32;;
10226;SDS011;15634;48.766;2.272;2023-05-29T10:41:42;19.00;;;10.57;;
10226;SDS011;15634;48.766;2.272;2023-05-29T10:47:10;18.13;;;10.10;;
10226;SDS011;15634;48.766;2.272;2023-05-29T10:49:37;17.27;;;10.43;;
10226;SDS011;15634;48.766;2.272;2023-05-29T10:52:04;18.13;;;10.50;;
10226;SDS011;15634;48.766;2.272;2023-05-29T10:54:40;13.23;;;9.68;;
10226;SDS011;15634;48.766;2.272;2023-05-29T10:57:07;18.40;;;12.23;;
10226;SDS011;15634;48.766;2.272;2023-05-29T10:59:35;19.80;;;13.30;;
10226;SDS011;15634;48.766;2.272;2023-05-29T11:02:03;26.58;;;14.60;;
10226;SDS011;15634;48.766;2.272;2023-05-29T11:04:32;16.33;;;10.77;;
10226;SDS011;15634;48.766;2.272;2023-05-29T11:06:59;18.73;;;11.07;;
10226;SDS011;15634;48.766;2.272;2023-05-29T11:09:30;22.17;;;13.48;;
10226;SDS011;15634;48.766;2.272;2023-05-29T11:12:10;28.17;;;14.90;;
10226;SDS011;15634;48.766;2.272;2023-05-29T11:14:44;29.17;;;16.92;;
10226;SDS011;15634;48.766;2.272;2023-05-29T11:20:13;20.85;;;11.25;;
10226;SDS011;15634;48.766;2.272;2023-05-29T11:22:51;20.65;;;11.48;;
10226;SDS011;15634;48.766;2.272;2023-05-29T11:25:25;18.23;;;10.30;;
10226;SDS011;15634;48.766;2.272;2023-05-29T11:27:52;19.75;;;10.98;;
10226;SDS011;15634;48.766;2.272;2023-05-29T11:30:19;13.68;;;9.45;;
10226;SDS011;15634;48.766;2.272;2023-05-29T11:32:47;17.80;;;10.13;;
10226;SDS011;15634;48.766;2.272;2023-05-29T11:35:15;15.68;;;9.95;;
10226;SDS011;15634;48.766;2.272;2023-05-29T11:37:44;14.43;;;8.57;;
10226;SDS011;15634;48.766;2.272;2023-05-29T11:40:12;15.18;;;9.90;;
10226;SDS011;15634;48.766;2.272;2023-05-29T11:42:40;15.07;;;9.55;;
10226;SDS011;15634;48.766;2.272;2023-05-29T11:45:13;16.08;;;9.48;;
10226;SDS011;15634;48.766;2.272;2023-05-29T11:47:50;12.63;;;8.65;;
10226;SDS011;15634;48.766;2.272;2023-05-29T11:50:20;25.92;;;14.32;;
10226;SDS011;15634;48.766;2.272;2023-05-29T11:52:47;24.08;;;14.02;;
10226;SDS011;15634;48.766;2.272;2023-05-29T11:55:13;27.58;;;14.48;;
10226;SDS011;15634;48.766;2.272;2023-05-29T11:57:40;23.88;;;13.50;;
10226;SDS011;15634;48.766;2.272;2023-05-29T12:00:07;21.27;;;10.85;;
10226;SDS011;15634;48.766;2.272;2023-05-29T12:02:38;17.50;;;9.82;;
10226;SDS011;15634;48.766;2.272;2023-05-29T12:05:05;14.57;;;9.15;;
10226;SDS011;15634;48.766;2.272;2023-05-29T12:07:34;15.35;;;9.15;;
10226;SDS011;15634;48.766;2.272;2023-05-29T12:10:10;14.32;;;9.63;;
10226;SDS011;15634;48.766;2.272;2023-05-29T12:12:37;15.98;;;9.50;;
10226;SDS011;15634;48.766;2.272;2023-05-29T12:15:04;15.57;;;9.38;;
10226;SDS011;15634;48.766;2.272;2023-05-29T12:17:32;13.95;;;8.82;;
10226;SDS011;15634;48.766;2.272;2023-05-29T12:19:59;13.82;;;8.35;;
10226;SDS011;15634;48.766;2.272;2023-05-29T12:22:34;12.27;;;8.15;;
10226;SDS011;15634;48.766;2.272;2023-05-29T12:25:05;16.55;;;8.32;;
10226;SDS011;15634;48.766;2.272;2023-05-29T12:27:33;12.40;;;8.05;;
10226;SDS011;15634;48.766;2.272;2023-05-29T12:30:06;13.55;;;7.90;;
10226;SDS011;15634;48.766;2.272;2023-05-29T12:32:34;13.18;;;7.63;;
10226;SDS011;15634;48.766;2.272;2023-05-29T12:35:09;10.68;;;6.82;;
10226;SDS011;15634;48.766;2.272;2023-05-29T12:37:42;12.32;;;7.50;;
10226;SDS011;15634;48.766;2.272;2023-05-29T12:40:10;12.43;;;6.80;;
10226;SDS011;15634;48.766;2.272;2023-05-29T12:42:40;12.95;;;7.28;;
10226;SDS011;15634;48.766;2.272;2023-05-29T12:45:07;11.57;;;7.22;;
10226;SDS011;15634;48.766;2.272;2023-05-29T12:47:34;11.73;;;6.75;;
10226;SDS011;15634;48.766;2.272;2023-05-29T12:50:04;12.18;;;7.18;;
10226;SDS011;15634;48.766;2.272;2023-05-29T12:52:53;14.18;;;6.90;;
10226;SDS011;15634;48.766;2.272;2023-05-29T12:55:25;11.60;;;5.95;;
10226;SDS011;15634;48.766;2.272;2023-05-29T12:57:52;10.98;;;5.55;;
10226;SDS011;15634;48.766;2.272;2023-05-29T13:00:19;9.68;;;5.28;;
10226;SDS011;15634;48.766;2.272;2023-05-29T13:02:46;9.63;;;5.68;;
10226;SDS011;15634;48.766;2.272;2023-05-29T13:05:13;9.45;;;5.80;;
10226;SDS011;15634;48.766;2.272;2023-05-29T13:07:40;9.32;;;5.05;;
10226;SDS011;15634;48.766;2.272;2023-05-29T13:10:09;8.45;;;5.40;;
10226;SDS011;15634;48.766;2.272;2023-05-29T13:12:36;18.02;;;7.80;;
10226;SDS011;15634;48.766;2.272;2023-05-29T13:15:03;13.35;;;6.15;;
10226;SDS011;15634;48.766;2.272;2023-05-29T13:17:30;19.33;;;9.63;;
10226;SDS011;15634;48.766;2.272;2023-05-29T13:19:57;15.18;;;7.43;;
10226;SDS011;15634;48.766;2.272;2023-05-29T13:22:24;13.98;;;7.10;;
10226;SDS011;15634;48.766;2.272;2023-05-29T13:24:55;20.80;;;8.95;;
10226;SDS011;15634;48.766;2.272;2023-05-29T13:27:23;19.95;;;10.70;;
10226;SDS011;15634;48.766;2.272;2023-05-29T13:29:50;15.65;;;6.50;;
10226;SDS011;15634;48.766;2.272;2023-05-29T13:32:17;11.40;;;6.00;;
10226;SDS011;15634;48.766;2.272;2023-05-29T13:34:43;16.98;;;8.30;;
10226;SDS011;15634;48.766;2.272;2023-05-29T13:37:10;9.70;;;5.53;;
10226;SDS011;15634;48.766;2.272;2023-05-29T13:39:37;11.13;;;5.80;;
10226;SDS011;15634;48.766;2.272;2023-05-29T13:42:04;13.23;;;6.25;;
10226;SDS011;15634;48.766;2.272;2023-05-29T13:44:33;7.35;;;4.72;;
10226;SDS011;15634;48.766;2.272;2023-05-29T13:46:59;9.35;;;4.70;;
10226;SDS011;15634;48.766;2.272;2023-05-29T13:49:26;9.80;;;4.80;;
10226;SDS011;15634;48.766;2.272;2023-05-29T13:51:53;10.80;;;4.80;;
10226;SDS011;15634;48.766;2.272;2023-05-29T13:54:20;31.58;;;14.15;;
10226;SDS011;15634;48.766;2.272;2023-05-29T13:56:47;14.65;;;6.80;;
10226;SDS011;15634;48.766;2.272;2023-05-29T13:59:13;16.50;;;7.32;;
10226;SDS011;15634;48.766;2.272;2023-05-29T14:01:41;14.10;;;7.38;;
10226;SDS011;15634;48.766;2.272;2023-05-29T14:04:08;12.10;;;6.57;;
10226;SDS011;15634;48.766;2.272;2023-05-29T14:06:35;10.93;;;5.03;;
10226;SDS011;15634;48.766;2.272;2023-05-29T14:09:02;15.25;;;7.30;;
10226;SDS011;15634;48.766;2.272;2023-05-29T14:11:29;13.00;;;6.63;;
10226;SDS011;15634;48.766;2.272;2023-05-29T14:13:56;11.95;;;5.70;;
10226;SDS011;15634;48.766;2.272;2023-05-29T14:16:22;9.80;;;4.82;;
10226;SDS011;15634;48.766;2.272;2023-05-29T14:18:50;11.48;;;4.93;;
10226;SDS011;15634;48.766;2.272;2023-05-29T14:21:17;10.50;;;4.95;;
10226;SDS011;15634;48.766;2.272;2023-05-29T14:23:45;8.50;;;4.50;;
10226;SDS011;15634;48.766;2.272;2023-05-29T14:26:12;9.45;;;4.15;;
10226;SDS011;15634;48.766;2.272;2023-05-29T14:28:39;9.30;;;4.30;;
10226;SDS011;15634;48.766;2.272;2023-05-29T14:31:06;7.95;;;4.20;;
10226;SDS011;15634;48.766;2.272;2023-05-29T14:33:33;8.00;;;4.07;;
10226;SDS011;15634;48.766;2.272;2023-05-29T14:36:03;10.70;;;4.88;;
10226;SDS011;15634;48.766;2.272;2023-05-29T14:38:30;9.18;;;4.50;;
10226;SDS011;15634;48.766;2.272;2023-05-29T14:40:56;7.18;;;4.15;;
10226;SDS011;15634;48.766;2.272;2023-05-29T14:43:23;9.02;;;4.55;;